Time,TemperatureF,DewpointF,PressureIn,WindDirection,WindDirectionDegrees,WindSpeedMPH,WindSpeedGustMPH,Humidity,HourlyPrecipIn,Conditions,Clouds,dailyrainin,SolarRadiationWatts/m^2,SoftwareType,DateUTC
2013-01-17 00:22:00,52.0,-27.0,-100.00,SSE,164,7.0,17.0,3,0.00,,,0.01,0.000000,,2013-01-17 10:22:00,
2013-01-17 00:32:00,52.0,-27.0,-100.00,SSE,164,7.0,17.0,3,0.00,,,0.01,0.000000,,2013-01-17 10:32:00,
2013-01-17 00:42:00,52.0,-27.0,-100.00,SSE,164,7.0,17.0,3,0.00,,,0.01,0.000000,,2013-01-17 10:42:00,
2013-01-17 00:52:00,52.0,-27.0,-100.00,SSE,164,7.0,17.0,3,0.00,,,0.01,0.000000,,2013-01-17 10:52:00,
2013-01-17 01:22:00,47.0,-30.0,-100.00,SSE,151,6.0,9.0,3,0.00,,,0.01,0.000000,,2013-01-17 11:22:00,
2013-01-17 01:32:00,47.0,-30.0,-100.00,SSE,151,6.0,9.0,3,0.00,,,0.01,0.000000,,2013-01-17 11:32:00,
2013-01-17 01:42:00,47.0,-30.0,-100.00,SSE,151,6.0,9.0,3,0.00,,,0.01,0.000000,,2013-01-17 11:42:00,
2013-01-17 01:52:00,47.0,-30.0,-100.00,SSE,151,6.0,9.0,3,0.00,,,0.01,0.000000,,2013-01-17 11:52:00,
2013-01-17 02:22:00,51.0,-27.0,-100.00,SE,143,11.0,11.0,3,0.00,,,0.01,0.000000,,2013-01-17 12:22:00,
2013-01-17 02:32:00,51.0,-27.0,-100.00,SE,143,11.0,11.0,3,0.00,,,0.01,0.000000,,2013-01-17 12:32:00,
2013-01-17 02:42:00,51.0,-27.0,-100.00,SE,143,11.0,11.0,3,0.00,,,0.01,0.000000,,2013-01-17 12:42:00,
2013-01-17 02:52:00,51.0,-27.0,-100.00,SE,143,11.0,11.0,3,0.00,,,0.01,0.000000,,2013-01-17 12:52:00,
2013-01-17 03:22:00,50.0,-28.0,-100.00,SE,137,11.0,16.0,3,0.00,,,0.00,0.000000,,2013-01-17 13:22:00,
2013-01-17 03:33:00,50.0,-28.0,-100.00,SE,137,11.0,16.0,3,0.00,,,0.00,0.000000,,2013-01-17 13:33:00,
2013-01-17 03:42:00,50.0,-28.0,-100.00,SE,137,11.0,16.0,3,0.00,,,0.00,0.000000,,2013-01-17 13:42:00,
2013-01-17 03:52:00,50.0,-28.0,-100.00,SE,137,11.0,16.0,3,0.00,,,0.00,0.000000,,2013-01-17 13:52:00,
2013-01-17 04:23:00,53.0,-26.0,-100.00,SE,137,12.0,17.0,3,0.00,,,0.00,0.000000,,2013-01-17 14:23:00,
2013-01-17 04:33:00,53.0,-26.0,-100.00,SE,137,12.0,17.0,3,0.00,,,0.00,0.000000,,2013-01-17 14:33:00,
2013-01-17 04:42:00,53.0,-26.0,-100.00,SE,137,12.0,17.0,3,0.00,,,0.00,0.000000,,2013-01-17 14:42:00,
2013-01-17 04:52:00,53.0,-26.0,-100.00,SE,137,12.0,17.0,3,0.00,,,0.00,0.000000,,2013-01-17 14:52:00,
2013-01-17 05:22:00,48.0,-29.0,-100.00,SSE,158,9.0,20.0,3,0.00,,,-99.99,0.000000,,2013-01-17 15:22:00,
2013-01-17 05:33:00,48.0,-29.0,-100.00,SSE,158,9.0,20.0,3,0.00,,,-99.99,0.000000,,2013-01-17 15:33:00,
2013-01-17 05:43:00,48.0,-29.0,-100.00,SSE,158,9.0,20.0,3,0.00,,,-99.99,0.000000,,2013-01-17 15:43:00,
2013-01-17 05:52:00,48.0,-29.0,-100.00,SSE,158,9.0,20.0,3,0.00,,,-99.99,0.000000,,2013-01-17 15:52:00,
2013-01-17 06:22:00,49.0,-29.0,-100.00,SE,140,14.0,16.0,3,0.00,,,0.00,0.000000,,2013-01-17 16:22:00,
2013-01-17 06:33:00,49.0,-29.0,-100.00,SE,140,14.0,16.0,3,0.00,,,0.00,0.000000,,2013-01-17 16:33:00,
2013-01-17 06:43:00,49.0,-29.0,-100.00,SE,140,14.0,16.0,3,0.00,,,0.00,0.000000,,2013-01-17 16:43:00,
2013-01-17 06:52:00,49.0,-29.0,-100.00,SE,140,14.0,16.0,3,0.00,,,0.00,0.000000,,2013-01-17 16:52:00,
2013-01-17 07:22:00,46.0,-31.0,-100.00,SE,144,10.0,18.0,3,0.00,,,0.00,0.000000,,2013-01-17 17:22:00,
2013-01-17 07:33:00,46.0,-31.0,-100.00,SE,144,10.0,18.0,3,0.00,,,0.00,0.000000,,2013-01-17 17:33:00,
2013-01-17 07:43:00,46.0,-31.0,-100.00,SE,144,10.0,18.0,3,0.00,,,0.00,0.000000,,2013-01-17 17:43:00,
2013-01-17 07:53:00,46.0,-31.0,-100.00,SE,144,10.0,18.0,3,0.00,,,0.00,0.000000,,2013-01-17 17:53:00,
2013-01-17 08:22:00,55.0,-24.0,-100.00,SSE,154,10.0,19.0,3,0.00,,,0.00,75.000000,,2013-01-17 18:22:00,
2013-01-17 08:33:00,55.0,-24.0,-100.00,SSE,154,10.0,19.0,3,0.00,,,0.00,75.000000,,2013-01-17 18:33:00,
2013-01-17 08:43:00,55.0,-24.0,-100.00,SSE,154,10.0,19.0,3,0.00,,,0.00,75.000000,,2013-01-17 18:43:00,
2013-01-17 08:52:00,55.0,-24.0,-100.00,SSE,154,10.0,19.0,3,0.00,,,0.00,75.000000,,2013-01-17 18:52:00,
2013-01-17 10:22:00,64.0,-18.0,-100.00,North,5,6.0,11.0,3,-99.99,,,0.00,557.000000,,2013-01-17 20:22:00,
2013-01-17 10:33:00,64.0,-18.0,-100.00,North,5,6.0,11.0,3,-99.99,,,0.00,557.000000,,2013-01-17 20:33:00,
2013-01-17 10:43:00,64.0,-18.0,-100.00,North,5,6.0,11.0,3,-99.99,,,0.00,557.000000,,2013-01-17 20:43:00,
2013-01-17 10:53:00,64.0,-18.0,-100.00,North,5,6.0,11.0,3,-99.99,,,0.00,557.000000,,2013-01-17 20:53:00,
2013-01-17 11:23:00,64.0,-18.0,-100.00,NW,326,8.0,14.0,3,0.00,,,0.00,747.000000,,2013-01-17 21:23:00,
2013-01-17 11:33:00,64.0,-18.0,-100.00,NW,326,8.0,14.0,3,0.00,,,0.00,747.000000,,2013-01-17 21:33:00,
2013-01-17 11:42:00,64.0,-18.0,-100.00,NW,326,8.0,14.0,3,0.00,,,0.00,747.000000,,2013-01-17 21:42:00,
2013-01-17 11:52:00,64.0,-18.0,-100.00,NW,326,8.0,14.0,3,0.00,,,0.00,747.000000,,2013-01-17 21:52:00,
2013-01-17 12:22:00,65.0,-18.0,-100.00,NW,315,8.0,15.0,3,0.00,,,-99.99,896.000000,,2013-01-17 22:22:00,
2013-01-17 12:33:00,65.0,-18.0,-100.00,NW,315,8.0,15.0,3,0.00,,,-99.99,896.000000,,2013-01-17 22:33:00,
2013-01-17 12:42:00,65.0,-18.0,-100.00,NW,315,8.0,15.0,3,0.00,,,-99.99,896.000000,,2013-01-17 22:42:00,
2013-01-17 12:52:00,65.0,-18.0,-100.00,NW,315,8.0,15.0,3,0.00,,,-99.99,896.000000,,2013-01-17 22:52:00,
2013-01-17 13:22:00,67.0,-16.0,-100.00,NNW,338,6.0,18.0,3,0.00,,,0.00,867.000000,,2013-01-17 23:22:00,
2013-01-17 13:32:00,67.0,-16.0,-100.00,NNW,338,6.0,18.0,3,0.00,,,0.00,867.000000,,2013-01-17 23:32:00,
2013-01-17 13:42:00,67.0,-16.0,-100.00,NNW,338,6.0,18.0,3,0.00,,,0.00,867.000000,,2013-01-17 23:42:00,
2013-01-17 13:52:00,67.0,-16.0,-100.00,NNW,338,6.0,18.0,3,0.00,,,0.00,867.000000,,2013-01-17 23:52:00,
2013-01-17 14:23:00,67.0,-16.0,-100.00,NW,322,11.0,17.0,3,0.00,,,0.00,944.000000,,2013-01-18 00:23:00,
2013-01-17 14:32:00,67.0,-16.0,-100.00,NW,322,11.0,17.0,3,0.00,,,0.00,944.000000,,2013-01-18 00:32:00,
2013-01-17 14:42:00,67.0,-16.0,-100.00,NW,322,11.0,17.0,3,0.00,,,0.00,944.000000,,2013-01-18 00:42:00,
2013-01-17 14:52:00,67.0,-16.0,-100.00,NW,322,11.0,17.0,3,0.00,,,0.00,944.000000,,2013-01-18 00:52:00,
2013-01-17 15:22:00,64.0,-18.0,-100.00,North,4,8.0,20.0,3,0.00,,,0.00,532.000000,,2013-01-18 01:22:00,
2013-01-17 15:33:00,64.0,-18.0,-100.00,North,4,8.0,20.0,3,0.00,,,0.00,532.000000,,2013-01-18 01:33:00,
2013-01-17 15:42:00,64.0,-18.0,-100.00,North,4,8.0,20.0,3,0.00,,,0.00,532.000000,,2013-01-18 01:42:00,
2013-01-17 15:52:00,64.0,-18.0,-100.00,North,4,8.0,20.0,3,0.00,,,0.00,532.000000,,2013-01-18 01:52:00,
2013-01-17 16:22:00,60.0,-21.0,-100.00,North,351,8.0,15.0,3,0.00,,,0.00,307.000000,,2013-01-18 02:22:00,
2013-01-17 16:32:00,60.0,-21.0,-100.00,North,351,8.0,15.0,3,0.00,,,0.00,307.000000,,2013-01-18 02:32:00,
2013-01-17 16:42:00,60.0,-21.0,-100.00,North,351,8.0,15.0,3,0.00,,,0.00,307.000000,,2013-01-18 02:42:00,
2013-01-17 16:52:00,60.0,-21.0,-100.00,North,351,8.0,15.0,3,0.00,,,0.00,307.000000,,2013-01-18 02:52:00,
2013-01-17 17:22:00,58.0,-22.0,-100.00,NW,314,8.0,15.0,3,0.00,,,0.00,148.000000,,2013-01-18 03:22:00,
2013-01-17 17:33:00,58.0,-22.0,-100.00,NW,314,8.0,15.0,3,0.00,,,0.00,148.000000,,2013-01-18 03:33:00,
2013-01-17 17:42:00,58.0,-22.0,-100.00,NW,314,8.0,15.0,3,0.00,,,0.00,148.000000,,2013-01-18 03:42:00,
2013-01-17 17:52:00,58.0,-22.0,-100.00,NW,314,8.0,15.0,3,0.00,,,0.00,148.000000,,2013-01-18 03:52:00,
2013-01-17 18:22:00,58.0,-22.0,-100.00,NW,320,5.0,14.0,3,0.00,,,-99.99,39.000000,,2013-01-18 04:22:00,
2013-01-17 18:32:00,58.0,-22.0,-100.00,NW,320,5.0,14.0,3,0.00,,,-99.99,39.000000,,2013-01-18 04:32:00,
2013-01-17 18:42:00,58.0,-22.0,-100.00,NW,320,5.0,14.0,3,0.00,,,-99.99,39.000000,,2013-01-18 04:42:00,
2013-01-17 18:52:00,58.0,-22.0,-100.00,NW,320,5.0,14.0,3,0.00,,,-99.99,39.000000,,2013-01-18 04:52:00,
2013-01-17 19:22:00,55.0,-24.0,-100.00,NNW,330,4.0,9.0,3,0.00,,,0.00,1.000000,,2013-01-18 05:22:00,
2013-01-17 19:33:00,55.0,-24.0,-100.00,NNW,330,4.0,9.0,3,0.00,,,0.00,1.000000,,2013-01-18 05:33:00,
2013-01-17 19:42:00,55.0,-24.0,-100.00,NNW,330,4.0,9.0,3,0.00,,,0.00,1.000000,,2013-01-18 05:42:00,
2013-01-17 19:52:00,55.0,-24.0,-100.00,NNW,330,4.0,9.0,3,0.00,,,0.00,1.000000,,2013-01-18 05:52:00,
2013-01-17 20:22:00,54.0,-25.0,-100.00,SE,128,2.0,7.0,3,0.00,,,0.00,0.000000,,2013-01-18 06:22:00,
2013-01-17 20:32:00,54.0,-25.0,-100.00,SE,128,2.0,7.0,3,0.00,,,0.00,0.000000,,2013-01-18 06:32:00,
2013-01-17 20:43:00,54.0,-25.0,-100.00,SE,128,2.0,7.0,3,0.00,,,0.00,0.000000,,2013-01-18 06:43:00,
2013-01-17 20:52:00,54.0,-25.0,-100.00,SE,128,2.0,7.0,3,0.00,,,0.00,0.000000,,2013-01-18 06:52:00,
2013-01-17 21:22:00,48.0,-29.0,-100.00,SE,137,8.0,8.0,3,0.00,,,0.00,0.000000,,2013-01-18 07:22:00,
2013-01-17 21:32:00,48.0,-29.0,-100.00,SE,137,8.0,8.0,3,0.00,,,0.00,0.000000,,2013-01-18 07:32:00,
2013-01-17 21:42:00,48.0,-29.0,-100.00,SE,137,8.0,8.0,3,0.00,,,0.00,0.000000,,2013-01-18 07:42:00,
2013-01-17 21:52:00,48.0,-29.0,-100.00,SE,137,8.0,8.0,3,0.00,,,0.00,0.000000,,2013-01-18 07:52:00,
2013-01-17 22:22:00,48.0,-29.0,-100.00,SSW,210,4.0,11.0,3,0.00,,,0.00,0.000000,,2013-01-18 08:22:00,
2013-01-17 22:32:00,48.0,-29.0,-100.00,SSW,210,4.0,11.0,3,0.00,,,0.00,0.000000,,2013-01-18 08:32:00,
2013-01-17 22:42:00,48.0,-29.0,-100.00,SSW,210,4.0,11.0,3,0.00,,,0.00,0.000000,,2013-01-18 08:42:00,
2013-01-17 22:52:00,48.0,-29.0,-100.00,SSW,210,4.0,11.0,3,0.00,,,0.00,0.000000,,2013-01-18 08:52:00,
2013-01-17 23:22:00,49.0,-29.0,-100.00,ESE,119,4.0,10.0,3,0.00,,,0.00,0.000000,,2013-01-18 09:22:00,
2013-01-17 23:32:00,49.0,-29.0,-100.00,ESE,119,4.0,10.0,3,0.00,,,0.00,0.000000,,2013-01-18 09:32:00,
2013-01-17 23:42:00,49.0,-29.0,-100.00,ESE,119,4.0,10.0,3,0.00,,,0.00,0.000000,,2013-01-18 09:42:00,
2013-01-17 23:52:00,49.0,-29.0,-100.00,ESE,119,4.0,10.0,3,0.00,,,0.00,0.000000,,2013-01-18 09:52:00,